Time;durP1;ratioP1;P1;durP2;ratioP2;P2;SDS_P1;SDS_P2;PMS_P1;PMS_P2;Temp;Humidity;BMP_temperature;BMP_pressure;BME280_temperature;BME280_humidity;BME280_pressure;Samples;Min_cycle;Max_cycle;Signal;HPM_P1;HPM_P2
2022/03/06 00:02:00;;;;;;;;;;;-1.40;96.80;;;;;;5071294;28;20031;-82
2022/03/06 00:04:26;;;;;;;;;;;-1.40;96.70;;;;;;5069154;28;19973;-81
2022/03/06 00:06:51;;;;;;;;;;;-1.40;96.10;;;;;;5059280;23;19931;-80
2022/03/06 00:09:17;;;;;;;;;;;-1.40;96.40;;;;;;5047084;28;19924;-80
2022/03/06 00:11:44;;;;;;;;;;;-1.40;96.50;;;;;;5060548;28;19983;-79
2022/03/06 00:14:09;;;;;;;;;;;-1.40;96.40;;;;;;5012941;28;20365;-80
2022/03/06 00:16:35;;;;;;;;;;;-1.40;95.50;;;;;;5013881;28;19913;-82
2022/03/06 00:19:01;;;;;;;;;;;-1.30;95.20;;;;;;5022285;28;19943;-80
2022/03/06 00:21:26;;;;;;;;;;;-1.30;95.10;;;;;;5013882;28;19921;-82
2022/03/06 00:23:52;;;;;;;;;;;-1.30;95.30;;;;;;5017098;28;19989;-80
2022/03/06 00:26:17;;;;;;;;;;;-1.30;94.90;;;;;;5033887;28;19909;-80
2022/03/06 00:28:43;;;;;;;;;;;-1.30;94.90;;;;;;5020201;28;20296;-82
2022/03/06 00:31:08;;;;;;;;;;;-1.20;94.90;;;;;;5012262;28;19920;-80
2022/03/06 00:33:34;;;;;;;;;;;-1.30;95.20;;;;;;5034255;28;20429;-82
2022/03/06 00:36:00;;;;;;;;;;;-1.30;95.10;;;;;;5052949;28;20290;-80
2022/03/06 00:38:26;;;;;;;;;;;-1.30;95.00;;;;;;5027184;28;19985;-80
2022/03/06 00:40:51;;;;;;;;;;;-1.30;94.60;;;;;;5037540;28;19913;-82
2022/03/06 00:43:17;;;;;;;;;;;-1.40;94.40;;;;;;5042500;28;19916;-80
2022/03/06 00:45:43;;;;;;;;;;;-1.40;94.60;;;;;;5017473;28;20394;-82
2022/03/06 00:48:09;;;;;;;;;;;-1.40;94.90;;;;;;5023654;28;19919;-80
2022/03/06 00:50:35;;;;;;;;;;;-1.40;95.00;;;;;;5028109;28;19916;-80
2022/03/06 00:53:01;;;;;;;;;;;-1.40;94.60;;;;;;5037168;28;19925;-80
2022/03/06 00:55:26;;;;;;;;;;;-1.50;94.70;;;;;;5006664;28;19922;-80
2022/03/06 00:57:52;;;;;;;;;;;-1.50;95.40;;;;;;5023630;28;19921;-79
2022/03/06 01:00:18;;;;;;;;;;;-1.50;95.20;;;;;;5015388;28;20593;-79
2022/03/06 01:02:43;;;;;;;;;;;-1.50;95.10;;;;;;5023917;28;20006;-80
2022/03/06 01:05:10;;;;;;;;;;;-1.60;95.50;;;;;;5012644;28;19918;-79
2022/03/06 01:07:35;;;;;;;;;;;-1.60;95.50;;;;;;5015412;28;19960;-80
2022/03/06 01:10:01;;;;;;;;;;;-1.60;95.50;;;;;;5034686;28;19913;-79
2022/03/06 01:12:26;;;;;;;;;;;-1.60;95.60;;;;;;5023964;28;19921;-79
2022/03/06 01:14:52;;;;;;;;;;;-1.60;96.00;;;;;;5017295;28;20327;-80
2022/03/06 01:17:17;;;;;;;;;;;-1.70;96.20;;;;;;5030975;28;20331;-80
2022/03/06 01:19:44;;;;;;;;;;;-1.70;96.70;;;;;;5031517;28;20000;-80
2022/03/06 01:22:09;;;;;;;;;;;-1.70;97.00;;;;;;5044065;28;20426;-80
2022/03/06 01:24:35;;;;;;;;;;;-1.70;96.20;;;;;;5016417;28;20012;-80
2022/03/06 01:27:00;;;;;;;;;;;-1.70;96.10;;;;;;5027267;28;19918;-80
2022/03/06 01:29:26;;;;;;;;;;;-1.70;96.50;;;;;;5014347;28;19921;-80
2022/03/06 01:31:51;;;;;;;;;;;-1.70;96.80;;;;;;4997552;28;19919;-79
2022/03/06 01:34:17;;;;;;;;;;;-1.70;96.90;;;;;;4997615;28;20004;-80
2022/03/06 01:36:42;;;;;;;;;;;-1.70;96.60;;;;;;5001721;28;20021;-80
2022/03/06 01:39:08;;;;;;;;;;;-1.70;96.70;;;;;;4997596;28;20048;-80
2022/03/06 01:41:34;;;;;;;;;;;-1.80;96.70;;;;;;5013919;28;20291;-80
2022/03/06 01:44:00;;;;;;;;;;;-1.80;97.10;;;;;;5020023;28;19917;-79
2022/03/06 01:46:26;;;;;;;;;;;-1.70;96.90;;;;;;5032203;28;20009;-80
2022/03/06 01:48:51;;;;;;;;;;;-1.80;96.60;;;;;;5026201;28;19916;-80
2022/03/06 01:51:17;;;;;;;;;;;-1.80;96.70;;;;;;5034051;28;19917;-80
2022/03/06 01:53:42;;;;;;;;;;;-1.80;97.60;;;;;;5050345;28;19948;-80
2022/03/06 01:56:11;;;;;;;;;;;-1.80;97.20;;;;;;5036828;28;20288;-80
2022/03/06 01:58:37;;;;;;;;;;;-1.80;96.60;;;;;;5032176;28;19913;-80
2022/03/06 02:01:03;;;;;;;;;;;-1.80;96.30;;;;;;5033575;28;20298;-80
2022/03/06 02:03:29;;;;;;;;;;;-1.80;96.00;;;;;;5005204;28;19917;-80
2022/03/06 02:05:54;;;;;;;;;;;-1.80;95.90;;;;;;4997644;28;19918;-80
2022/03/06 02:08:20;;;;;;;;;;;-1.70;96.20;;;;;;5011916;28;20379;-80
2022/03/06 02:10:47;;;;;;;;;;;-1.70;95.60;;;;;;5008641;28;19964;-80
2022/03/06 02:13:12;;;;;;;;;;;-1.70;95.40;;;;;;5026585;28;19924;-80
2022/03/06 02:15:38;;;;;;;;;;;-1.70;95.30;;;;;;5013794;28;19913;-80
2022/03/06 02:18:04;;;;;;;;;;;-1.60;94.50;;;;;;5016516;28;19939;-80
2022/03/06 02:20:29;;;;;;;;;;;-1.60;94.90;;;;;;5033201;28;19924;-80
2022/03/06 02:22:56;;;;;;;;;;;-1.60;95.20;;;;;;5030113;28;21334;-80
2022/03/06 02:25:26;;;;;;;;;;;-1.60;94.90;;;;;;5001141;28;19920;-79
2022/03/06 02:27:53;;;;;;;;;;;-1.60;94.90;;;;;;5032814;28;19913;-80
2022/03/06 02:30:20;;;;;;;;;;;-1.60;94.70;;;;;;5037275;28;19909;-80
2022/03/06 02:32:46;;;;;;;;;;;-1.60;94.70;;;;;;4996751;28;19913;-80
2022/03/06 02:35:12;;;;;;;;;;;-1.60;94.30;;;;;;5016906;28;19925;-81
2022/03/06 02:37:37;;;;;;;;;;;-1.60;94.40;;;;;;5040995;28;19943;-79
2022/03/06 02:40:04;;;;;;;;;;;-1.60;95.00;;;;;;5032914;28;19913;-80
2022/03/06 02:42:30;;;;;;;;;;;-1.60;94.60;;;;;;5033410;28;19917;-80
2022/03/06 02:44:58;;;;;;;;;;;-1.60;94.40;;;;;;5016061;28;19975;-80
2022/03/06 02:47:24;;;;;;;;;;;-1.60;94.00;;;;;;5030719;28;19917;-80
2022/03/06 02:49:50;;;;;;;;;;;-1.60;94.00;;;;;;4999447;28;19963;-80
2022/03/06 02:52:16;;;;;;;;;;;-1.60;93.80;;;;;;5024506;28;20004;-80
2022/03/06 02:54:41;;;;;;;;;;;-1.60;93.80;;;;;;5012998;28;19925;-80
2022/03/06 02:57:07;;;;;;;;;;;-1.60;94.30;;;;;;5036072;28;19917;-80
2022/03/06 02:59:33;;;;;;;;;;;-1.60;94.50;;;;;;5012911;28;20004;-80
2022/03/06 03:01:59;;;;;;;;;;;-1.70;94.40;;;;;;5014459;28;19921;-79
2022/03/06 03:04:24;;;;;;;;;;;-1.70;94.30;;;;;;5015451;28;19913;-80
2022/03/06 03:06:50;;;;;;;;;;;-1.70;94.10;;;;;;5015833;28;19921;-80
2022/03/06 03:09:17;;;;;;;;;;;-1.70;94.00;;;;;;5032359;28;19952;-80
2022/03/06 03:11:42;;;;;;;;;;;-1.70;94.10;;;;;;5018807;28;20007;-80
2022/03/06 03:14:08;;;;;;;;;;;-1.70;94.50;;;;;;5013020;28;20446;-80
2022/03/06 03:16:33;;;;;;;;;;;-1.80;94.60;;;;;;5044553;28;20360;-80
2022/03/06 03:18:59;;;;;;;;;;;-1.80;94.80;;;;;;5024892;28;19917;-80
2022/03/06 03:21:24;;;;;;;;;;;-1.90;94.90;;;;;;5019529;28;19961;-80
2022/03/06 03:23:50;;;;;;;;;;;-1.90;94.60;;;;;;5023900;28;19913;-80
2022/03/06 03:26:16;;;;;;;;;;;-2.00;94.60;;;;;;5022588;28;20000;-80
2022/03/06 03:28:41;;;;;;;;;;;-2.00;94.90;;;;;;4996361;28;19967;-80
2022/03/06 03:31:07;;;;;;;;;;;-2.00;95.20;;;;;;5011536;28;20008;-80
2022/03/06 03:33:32;;;;;;;;;;;-2.10;94.60;;;;;;4996500;28;19917;-80
2022/03/06 03:35:58;;;;;;;;;;;-2.10;94.40;;;;;;5012753;28;20339;-80
2022/03/06 03:38:23;;;;;;;;;;;-2.10;94.90;;;;;;5023616;28;20376;-80
2022/03/06 03:40:49;;;;;;;;;;;-2.20;95.40;;;;;;5029884;28;19920;-80
2022/03/06 03:43:14;;;;;;;;;;;-2.20;96.20;;;;;;5020656;28;19913;-80
2022/03/06 03:45:40;;;;;;;;;;;-2.30;96.70;;;;;;5009708;28;20338;-80
2022/03/06 03:48:05;;;;;;;;;;;-2.30;97.20;;;;;;5017806;28;19914;-80
2022/03/06 03:50:31;;;;;;;;;;;-2.30;97.60;;;;;;4998278;28;19920;-80
2022/03/06 03:52:56;;;;;;;;;;;-2.30;97.70;;;;;;5001121;28;19968;-80
2022/03/06 03:55:22;;;;;;;;;;;-2.30;97.50;;;;;;5031934;28;19924;-80
2022/03/06 03:57:47;;;;;;;;;;;-2.30;97.20;;;;;;5030992;28;19914;-80
2022/03/06 04:00:13;;;;;;;;;;;-2.30;97.00;;;;;;5030574;28;19972;-80
2022/03/06 04:02:39;;;;;;;;;;;-2.30;97.00;;;;;;5052490;28;20313;-80
2022/03/06 04:05:04;;;;;;;;;;;-2.30;97.40;;;;;;5020805;28;19913;-80
2022/03/06 04:07:30;;;;;;;;;;;-2.30;97.30;;;;;;5015732;28;19921;-80
2022/03/06 04:09:55;;;;;;;;;;;-2.40;97.30;;;;;;5031478;28;19955;-80
2022/03/06 04:12:21;;;;;;;;;;;-2.40;97.60;;;;;;5029085;28;19926;-80
2022/03/06 04:14:46;;;;;;;;;;;-2.40;97.80;;;;;;5052432;28;19917;-80
2022/03/06 04:17:12;;;;;;;;;;;-2.40;97.80;;;;;;5036229;28;20354;-81
2022/03/06 04:19:37;;;;;;;;;;;-2.40;97.40;;;;;;5027792;28;19929;-80
2022/03/06 04:22:03;;;;;;;;;;;-2.40;97.40;;;;;;5036038;28;19917;-80
2022/03/06 04:24:29;;;;;;;;;;;-2.40;97.10;;;;;;5039261;28;19913;-80
2022/03/06 04:26:54;;;;;;;;;;;-2.40;97.10;;;;;;5047162;28;19980;-80
2022/03/06 04:29:20;;;;;;;;;;;-2.40;97.00;;;;;;5028135;28;19917;-80
2022/03/06 04:31:49;;;;;;;;;;;-2.40;96.90;;;;;;5034167;28;19921;-80
2022/03/06 04:34:15;;;;;;;;;;;-2.40;97.00;;;;;;5002739;28;19917;-80
2022/03/06 04:36:43;;;;;;;;;;;-2.30;97.30;;;;;;5052557;28;20291;-81
2022/03/06 04:39:09;;;;;;;;;;;-2.30;97.50;;;;;;5051656;28;19909;-80
2022/03/06 04:41:34;;;;;;;;;;;-2.40;97.60;;;;;;5022010;28;19914;-80
2022/03/06 04:44:00;;;;;;;;;;;-2.40;97.70;;;;;;5038716;28;19910;-80
2022/03/06 04:46:25;;;;;;;;;;;-2.40;97.70;;;;;;5027372;28;19921;-80
2022/03/06 04:48:51;;;;;;;;;;;-2.40;97.60;;;;;;5052559;28;20372;-80
2022/03/06 04:51:17;;;;;;;;;;;-2.40;97.70;;;;;;5035458;28;19921;-80
2022/03/06 04:53:43;;;;;;;;;;;-2.40;97.80;;;;;;5022868;28;19910;-80
2022/03/06 04:56:08;;;;;;;;;;;-2.40;97.90;;;;;;5033872;28;19920;-80
2022/03/06 04:58:34;;;;;;;;;;;-2.40;97.90;;;;;;5037199;28;19910;-81
2022/03/06 05:01:00;;;;;;;;;;;-2.40;98.00;;;;;;5015821;28;20011;-80
2022/03/06 05:03:25;;;;;;;;;;;-2.50;98.10;;;;;;5030186;28;19983;-80
2022/03/06 05:05:51;;;;;;;;;;;-2.50;98.10;;;;;;5037998;28;19921;-80
2022/03/06 05:08:17;;;;;;;;;;;-2.50;98.30;;;;;;5027925;28;19917;-81
2022/03/06 05:10:42;;;;;;;;;;;-2.50;98.40;;;;;;5052353;28;19910;-80
2022/03/06 05:13:09;;;;;;;;;;;-2.50;98.10;;;;;;5024580;28;20269;-80
2022/03/06 05:15:35;;;;;;;;;;;-2.50;98.10;;;;;;5032960;28;19914;-80
2022/03/06 05:18:01;;;;;;;;;;;-2.50;98.50;;;;;;5037922;28;19909;-81
2022/03/06 05:20:26;;;;;;;;;;;-2.50;98.90;;;;;;5025723;28;19924;-80
2022/03/06 05:22:52;;;;;;;;;;;-2.50;99.20;;;;;;5020345;28;19920;-80
2022/03/06 05:25:18;;;;;;;;;;;-2.50;99.20;;;;;;5020700;28;20031;-80
2022/03/06 05:27:43;;;;;;;;;;;-2.40;99.10;;;;;;5051689;28;19909;-80
2022/03/06 05:30:10;;;;;;;;;;;-2.40;98.80;;;;;;5051881;28;19913;-80
2022/03/06 05:32:35;;;;;;;;;;;-2.40;99.90;;;;;;5031789;28;20004;-80
2022/03/06 05:35:01;;;;;;;;;;;-2.40;99.90;;;;;;5003944;28;20325;-81
2022/03/06 05:37:26;;;;;;;;;;;-2.50;99.90;;;;;;5031594;28;19917;-80
2022/03/06 05:39:52;;;;;;;;;;;-2.50;99.90;;;;;;5027864;28;19917;-80
2022/03/06 05:42:19;;;;;;;;;;;-2.50;99.90;;;;;;5052167;28;19916;-81
2022/03/06 05:44:45;;;;;;;;;;;-2.50;99.90;;;;;;5033435;28;20403;-81
2022/03/06 05:47:10;;;;;;;;;;;-2.50;99.90;;;;;;5021252;28;19993;-80
2022/03/06 05:49:36;;;;;;;;;;;-2.50;99.90;;;;;;5033955;28;19920;-80
2022/03/06 05:52:02;;;;;;;;;;;-2.50;99.90;;;;;;5015839;28;19945;-81
2022/03/06 05:54:28;;;;;;;;;;;-2.50;99.90;;;;;;5023233;28;20011;-80
2022/03/06 05:56:54;;;;;;;;;;;-2.50;99.90;;;;;;5049886;28;19920;-80
2022/03/06 05:59:20;;;;;;;;;;;-2.40;99.90;;;;;;5037889;28;19909;-80
2022/03/06 06:01:45;;;;;;;;;;;-2.40;99.90;;;;;;5050116;28;19916;-81
2022/03/06 06:04:12;;;;;;;;;;;-2.40;99.90;;;;;;5032303;28;19910;-80
2022/03/06 06:06:38;;;;;;;;;;;-2.40;99.90;;;;;;5041701;23;20428;-88
2022/03/06 06:09:04;;;;;;;;;;;-2.40;99.90;;;;;;5061542;28;19914;-87
2022/03/06 06:11:29;;;;;;;;;;;-2.40;99.90;;;;;;5060961;28;20266;-86
2022/03/06 06:13:55;;;;;;;;;;;-2.30;99.90;;;;;;5040690;28;20004;-86
2022/03/06 06:16:20;;;;;;;;;;;-2.30;99.90;;;;;;5018552;28;20391;-87
2022/03/06 06:18:46;;;;;;;;;;;-2.30;99.90;;;;;;5015279;28;19955;-86
2022/03/06 06:21:13;;;;;;;;;;;-2.20;99.90;;;;;;5031325;28;19920;-87
2022/03/06 06:23:39;;;;;;;;;;;-2.20;99.90;;;;;;5032070;28;19910;-86
2022/03/06 06:26:05;;;;;;;;;;;-2.10;99.90;;;;;;5014914;28;20266;-85
2022/03/06 06:28:30;;;;;;;;;;;-2.10;99.20;;;;;;5031284;28;19921;-86
2022/03/06 06:30:56;;;;;;;;;;;-2.00;99.00;;;;;;5032706;28;19917;-84
2022/03/06 06:33:21;;;;;;;;;;;-2.00;98.40;;;;;;5014698;28;19920;-84
2022/03/06 06:35:47;;;;;;;;;;;-2.00;98.60;;;;;;5014216;28;19924;-89
2022/03/06 06:38:12;;;;;;;;;;;-1.90;98.60;;;;;;5030713;28;19959;-87
2022/03/06 06:40:38;;;;;;;;;;;-1.90;98.70;;;;;;5031244;28;20468;-86
2022/03/06 06:43:03;;;;;;;;;;;-1.80;98.70;;;;;;5031303;28;19920;-87
2022/03/06 06:45:30;;;;;;;;;;;-1.70;97.90;;;;;;5016465;28;19948;-86
2022/03/06 06:47:55;;;;;;;;;;;-1.70;97.60;;;;;;5040239;28;19940;-86
2022/03/06 06:50:21;;;;;;;;;;;-1.60;97.70;;;;;;5033740;28;20413;-86
2022/03/06 06:52:46;;;;;;;;;;;-1.60;97.40;;;;;;5010767;28;19921;-86
2022/03/06 06:55:12;;;;;;;;;;;-1.50;97.80;;;;;;5021074;28;19921;-86
2022/03/06 06:57:37;;;;;;;;;;;-1.40;98.60;;;;;;5034058;28;20397;-86
2022/03/06 07:00:03;;;;;;;;;;;-1.40;99.00;;;;;;5019968;28;19939;-86
2022/03/06 07:02:29;;;;;;;;;;;-1.30;99.20;;;;;;5034939;28;19987;-84
2022/03/06 07:04:54;;;;;;;;;;;-1.20;99.10;;;;;;5016387;28;19921;-84
2022/03/06 07:07:19;;;;;;;;;;;-1.10;99.00;;;;;;5031317;28;19929;-85
2022/03/06 07:09:45;;;;;;;;;;;-1.10;99.10;;;;;;5029693;28;19966;-85
2022/03/06 07:12:11;;;;;;;;;;;-1.00;99.00;;;;;;5029146;28;19924;-86
2022/03/06 07:14:37;;;;;;;;;;;-0.90;98.60;;;;;;5030683;28;20004;-86
2022/03/06 07:17:02;;;;;;;;;;;-0.80;98.40;;;;;;5028585;28;20369;-86
2022/03/06 07:19:28;;;;;;;;;;;-0.70;97.70;;;;;;5037275;28;20035;-85
2022/03/06 07:21:53;;;;;;;;;;;-0.60;97.20;;;;;;5028342;28;19984;-86
2022/03/06 07:24:19;;;;;;;;;;;-0.50;96.80;;;;;;5029443;28;19917;-85
2022/03/06 07:26:47;;;;;;;;;;;-0.50;96.80;;;;;;5029112;28;19916;-86
2022/03/06 07:29:13;;;;;;;;;;;-0.40;96.00;;;;;;5013454;28;19914;-85
2022/03/06 07:31:38;;;;;;;;;;;-0.40;94.40;;;;;;5031083;28;19924;-85
2022/03/06 07:34:04;;;;;;;;;;;-0.30;95.50;;;;;;5017044;28;20297;-86
2022/03/06 07:36:29;;;;;;;;;;;-0.30;95.30;;;;;;5016844;28;19927;-86
2022/03/06 07:38:54;;;;;;;;;;;-0.30;94.80;;;;;;5016395;28;19921;-86
2022/03/06 07:41:20;;;;;;;;;;;-0.30;94.50;;;;;;5034464;28;20437;-85
2022/03/06 07:43:46;;;;;;;;;;;-0.20;94.90;;;;;;5033843;28;19913;-85
2022/03/06 07:46:11;;;;;;;;;;;-0.20;94.20;;;;;;5033257;28;19920;-86
2022/03/06 07:48:37;;;;;;;;;;;-0.20;93.10;;;;;;5034010;28;19940;-88
2022/03/06 07:51:03;;;;;;;;;;;-0.10;93.90;;;;;;5033952;28;19913;-86
2022/03/06 07:53:28;;;;;;;;;;;-0.10;92.90;;;;;;5032593;28;19971;-86
2022/03/06 07:55:54;;;;;;;;;;;0.00;93.30;;;;;;5032821;28;19944;-86
2022/03/06 07:58:20;;;;;;;;;;;0.00;93.00;;;;;;5015830;28;19986;-86
2022/03/06 08:00:45;;;;;;;;;;;0.10;92.70;;;;;;5028056;28;19910;-86
2022/03/06 08:03:11;;;;;;;;;;;0.20;91.00;;;;;;5015459;28;19917;-86
2022/03/06 08:05:36;;;;;;;;;;;0.30;93.30;;;;;;5032581;28;19921;-85
2022/03/06 08:08:02;;;;;;;;;;;0.40;90.90;;;;;;5015151;28;19974;-85
2022/03/06 08:10:28;;;;;;;;;;;0.50;92.10;;;;;;5033559;28;19916;-86
2022/03/06 08:12:53;;;;;;;;;;;0.60;91.10;;;;;;5015901;28;19917;-85
2022/03/06 08:15:19;;;;;;;;;;;0.60;88.80;;;;;;5033629;28;19943;-85
2022/03/06 08:17:44;;;;;;;;;;;0.80;91.50;;;;;;5020890;28;19948;-86
2022/03/06 08:20:10;;;;;;;;;;;1.00;89.30;;;;;;5029998;28;19924;-86
2022/03/06 08:22:36;;;;;;;;;;;1.10;86.10;;;;;;5031437;28;20016;-85
2022/03/06 08:25:02;;;;;;;;;;;1.20;88.00;;;;;;5033887;28;19909;-83
2022/03/06 08:27:28;;;;;;;;;;;1.30;87.80;;;;;;5029907;28;19917;-83
2022/03/06 08:29:53;;;;;;;;;;;1.40;85.40;;;;;;5015631;28;20012;-83
2022/03/06 08:32:19;;;;;;;;;;;1.50;86.70;;;;;;5024579;28;20004;-83
2022/03/06 08:34:44;;;;;;;;;;;1.50;85.40;;;;;;5024831;28;19913;-84
2022/03/06 08:37:10;;;;;;;;;;;1.60;83.90;;;;;;5010582;28;19928;-83
2022/03/06 08:39:35;;;;;;;;;;;1.70;82.30;;;;;;5007176;28;19920;-84
2022/03/06 08:42:01;;;;;;;;;;;1.70;81.60;;;;;;5015307;28;20436;-83
2022/03/06 08:44:27;;;;;;;;;;;1.80;77.60;;;;;;5031266;28;19921;-83
2022/03/06 08:46:52;;;;;;;;;;;1.80;80.70;;;;;;5031182;28;19936;-83
2022/03/06 08:49:18;;;;;;;;;;;1.90;80.60;;;;;;5033074;28;19948;-83
2022/03/06 08:51:44;;;;;;;;;;;2.00;80.30;;;;;;5020956;28;19921;-83
2022/03/06 08:54:09;;;;;;;;;;;2.10;82.90;;;;;;5012658;28;19921;-83
2022/03/06 08:56:35;;;;;;;;;;;2.20;80.00;;;;;;5008647;28;19929;-84
2022/03/06 08:59:00;;;;;;;;;;;2.20;79.20;;;;;;5031207;28;19913;-83
2022/03/06 09:01:26;;;;;;;;;;;2.20;77.70;;;;;;5015083;28;19924;-83
2022/03/06 09:03:51;;;;;;;;;;;2.20;76.20;;;;;;5014900;28;19924;-84
2022/03/06 09:06:17;;;;;;;;;;;2.30;77.50;;;;;;5024228;28;19917;-84
2022/03/06 09:08:43;;;;;;;;;;;2.30;77.40;;;;;;5016892;28;20413;-84
2022/03/06 09:11:09;;;;;;;;;;;2.40;79.20;;;;;;5028304;28;19992;-84
2022/03/06 09:13:35;;;;;;;;;;;2.60;75.90;;;;;;5027961;28;19945;-83
2022/03/06 09:16:01;;;;;;;;;;;2.60;74.70;;;;;;5010487;28;19921;-84
2022/03/06 09:18:26;;;;;;;;;;;2.70;72.10;;;;;;5014210;28;20016;-84
2022/03/06 09:20:52;;;;;;;;;;;2.80;71.50;;;;;;5031235;28;19948;-84
2022/03/06 09:23:17;;;;;;;;;;;3.00;74.80;;;;;;5024240;28;19921;-84
2022/03/06 09:25:43;;;;;;;;;;;3.10;73.30;;;;;;5026458;28;19917;-83
2022/03/06 09:28:08;;;;;;;;;;;3.10;71.80;;;;;;5031754;28;19913;-83
2022/03/06 09:30:34;;;;;;;;;;;3.10;69.10;;;;;;5014803;28;19967;-84
2022/03/06 09:33:00;;;;;;;;;;;3.10;69.40;;;;;;5009188;28;20386;-86
2022/03/06 09:35:25;;;;;;;;;;;3.10;68.50;;;;;;5028556;28;19917;-85
2022/03/06 09:37:51;;;;;;;;;;;3.10;68.20;;;;;;5025711;28;19976;-85
2022/03/06 09:40:17;;;;;;;;;;;3.10;66.50;;;;;;5014142;28;19956;-84
2022/03/06 09:42:43;;;;;;;;;;;3.10;66.00;;;;;;5013184;28;19913;-83
2022/03/06 09:45:09;;;;;;;;;;;3.10;65.10;;;;;;5030483;28;20377;-83
2022/03/06 09:47:35;;;;;;;;;;;3.10;62.40;;;;;;5028154;28;20370;-83
2022/03/06 09:50:01;;;;;;;;;;;3.10;63.30;;;;;;5021469;28;19924;-83
2022/03/06 09:52:27;;;;;;;;;;;3.10;63.40;;;;;;5014249;28;19979;-83
2022/03/06 09:54:52;;;;;;;;;;;3.20;64.50;;;;;;5029400;28;19918;-83
2022/03/06 09:57:19;;;;;;;;;;;3.20;62.30;;;;;;5030288;28;19917;-83
2022/03/06 09:59:44;;;;;;;;;;;3.30;61.10;;;;;;5014154;28;20031;-83
2022/03/06 10:02:11;;;;;;;;;;;3.40;66.70;;;;;;5030735;28;20421;-83
2022/03/06 10:04:37;;;;;;;;;;;3.40;62.00;;;;;;5031020;28;20309;-83
2022/03/06 10:07:03;;;;;;;;;;;3.50;64.00;;;;;;5030146;28;19921;-84
2022/03/06 10:09:29;;;;;;;;;;;3.60;59.80;;;;;;5030392;28;19990;-84
2022/03/06 10:11:54;;;;;;;;;;;3.70;60.30;;;;;;5030757;28;19913;-84
2022/03/06 10:14:37;;;;;;;;;;;3.80;59.70;;;;;;5030038;28;20024;-84
2022/03/06 10:17:13;;;;;;;;;;;3.90;60.50;;;;;;5027127;28;19913;-83
2022/03/06 10:19:53;;;;;;;;;;;4.00;58.80;;;;;;5019890;28;19984;-83
2022/03/06 10:22:19;;;;;;;;;;;4.20;57.70;;;;;;5014044;28;19958;-86
2022/03/06 10:24:56;;;;;;;;;;;4.30;55.90;;;;;;5030500;28;19931;-86
2022/03/06 10:27:40;;;;;;;;;;;4.40;54.30;;;;;;5013041;28;19959;-85
2022/03/06 10:30:26;;;;;;;;;;;4.40;55.00;;;;;;5025290;28;19923;-85
2022/03/06 10:32:52;;;;;;;;;;;4.50;54.20;;;;;;5023445;28;19916;-84
2022/03/06 10:35:18;;;;;;;;;;;4.60;55.40;;;;;;5019101;28;19917;-86
2022/03/06 10:37:44;;;;;;;;;;;4.80;55.10;;;;;;5023937;28;20380;-86
2022/03/06 10:40:14;;;;;;;;;;;5.00;52.00;;;;;;5016914;28;19913;-86
2022/03/06 10:42:43;;;;;;;;;;;5.00;51.10;;;;;;5018306;28;19913;-86
2022/03/06 10:45:29;;;;;;;;;;;5.00;49.00;;;;;;5023201;28;19956;-85
2022/03/06 10:47:55;;;;;;;;;;;5.00;49.20;;;;;;5028754;28;19920;-86
2022/03/06 10:50:22;;;;;;;;;;;4.90;50.60;;;;;;5029967;28;19924;-86
2022/03/06 10:52:47;;;;;;;;;;;4.80;50.50;;;;;;5012356;28;20361;-86
2022/03/06 10:55:13;;;;;;;;;;;4.80;50.30;;;;;;5029621;28;19984;-85
2022/03/06 10:57:40;;;;;;;;;;;4.60;49.40;;;;;;5028962;28;19916;-85
2022/03/06 11:00:06;;;;;;;;;;;4.60;50.20;;;;;;5031138;28;19959;-85
2022/03/06 11:02:32;;;;;;;;;;;4.60;51.60;;;;;;5029233;28;19910;-86
2022/03/06 11:05:00;;;;;;;;;;;4.60;51.60;;;;;;5030946;28;20374;-86
2022/03/06 11:07:29;;;;;;;;;;;4.50;51.30;;;;;;5029920;28;20506;-85
2022/03/06 11:09:57;;;;;;;;;;;4.60;51.00;;;;;;5013264;28;19970;-85
2022/03/06 11:12:25;;;;;;;;;;;4.50;50.10;;;;;;5029182;28;19963;-85
2022/03/06 11:14:51;;;;;;;;;;;4.50;50.20;;;;;;5013029;28;20423;-86
2022/03/06 11:17:18;;;;;;;;;;;4.60;50.10;;;;;;5028211;28;21362;-85
2022/03/06 11:19:44;;;;;;;;;;;4.70;51.30;;;;;;5029538;28;19963;-86
2022/03/06 11:22:15;;;;;;;;;;;4.70;51.50;;;;;;5029326;28;19932;-85
2022/03/06 11:24:51;;;;;;;;;;;4.80;50.80;;;;;;5029391;28;19949;-86
2022/03/06 11:27:31;;;;;;;;;;;4.80;51.20;;;;;;5028609;28;19917;-86
2022/03/06 11:30:03;;;;;;;;;;;4.90;51.70;;;;;;5031039;28;19945;-83
2022/03/06 11:32:31;;;;;;;;;;;4.90;51.40;;;;;;5022568;28;19967;-84
2022/03/06 11:35:17;;;;;;;;;;;5.00;50.60;;;;;;5030255;28;20289;-84
2022/03/06 11:37:48;;;;;;;;;;;4.90;51.10;;;;;;5013318;28;20015;-84
2022/03/06 11:40:32;;;;;;;;;;;4.90;51.30;;;;;;5031779;28;19910;-84
2022/03/06 11:42:58;;;;;;;;;;;5.00;50.30;;;;;;5030551;28;19952;-84
2022/03/06 11:45:42;;;;;;;;;;;5.00;50.90;;;;;;5013754;28;19957;-83
2022/03/06 11:48:08;;;;;;;;;;;5.00;52.60;;;;;;5030083;28;19913;-84
2022/03/06 11:50:33;;;;;;;;;;;5.00;51.10;;;;;;5030671;28;19925;-85
2022/03/06 11:53:00;;;;;;;;;;;4.90;49.90;;;;;;5031112;28;19970;-84
2022/03/06 11:55:32;;;;;;;;;;;5.00;50.00;;;;;;5014486;28;19921;-84
2022/03/06 11:57:58;;;;;;;;;;;5.00;51.10;;;;;;5031730;28;19921;-84
2022/03/06 12:00:24;;;;;;;;;;;5.10;50.40;;;;;;5031839;28;19917;-84
2022/03/06 12:02:52;;;;;;;;;;;5.10;49.90;;;;;;5012999;28;19921;-84
2022/03/06 12:05:19;;;;;;;;;;;5.10;50.30;;;;;;5029811;28;19917;-84
2022/03/06 12:07:45;;;;;;;;;;;5.20;51.50;;;;;;5049663;22;20023;-84
2022/03/06 12:10:12;;;;;;;;;;;5.10;50.90;;;;;;5028871;28;20405;-85
2022/03/06 12:12:38;;;;;;;;;;;5.10;49.30;;;;;;5029905;28;19917;-85
2022/03/06 12:15:14;;;;;;;;;;;5.10;48.40;;;;;;5029356;28;19979;-85
2022/03/06 12:17:39;;;;;;;;;;;5.20;50.70;;;;;;5030118;28;19917;-84
2022/03/06 12:20:08;;;;;;;;;;;5.10;50.00;;;;;;5033956;28;20325;-84
2022/03/06 12:22:44;;;;;;;;;;;5.20;48.20;;;;;;5049005;28;20399;-84
2022/03/06 12:25:13;;;;;;;;;;;5.20;50.10;;;;;;5049095;28;19943;-84
2022/03/06 12:27:40;;;;;;;;;;;5.30;50.00;;;;;;5051050;28;19913;-85
2022/03/06 12:30:07;;;;;;;;;;;5.30;49.30;;;;;;5017022;28;19927;-84
2022/03/06 12:32:36;;;;;;;;;;;5.30;49.20;;;;;;5033738;28;19917;-84
2022/03/06 12:35:01;;;;;;;;;;;5.30;49.80;;;;;;5035311;28;19963;-84
2022/03/06 12:37:30;;;;;;;;;;;5.30;50.30;;;;;;5034556;28;19921;-85
2022/03/06 12:39:56;;;;;;;;;;;5.30;49.70;;;;;;5050117;28;20058;-84
2022/03/06 12:42:23;;;;;;;;;;;5.30;49.20;;;;;;5032695;28;20340;-84
2022/03/06 12:44:51;;;;;;;;;;;5.30;51.10;;;;;;5033495;28;19945;-84
2022/03/06 12:47:17;;;;;;;;;;;5.40;50.60;;;;;;5048745;28;19960;-85
2022/03/06 12:49:45;;;;;;;;;;;5.40;49.00;;;;;;5033727;28;19967;-85
2022/03/06 12:52:10;;;;;;;;;;;5.40;48.60;;;;;;5049794;28;19921;-84
2022/03/06 12:54:36;;;;;;;;;;;5.40;49.80;;;;;;5035636;28;20362;-85
2022/03/06 12:57:01;;;;;;;;;;;5.30;48.60;;;;;;5033478;28;19924;-85
2022/03/06 12:59:27;;;;;;;;;;;5.20;50.60;;;;;;5033515;28;19925;-85
2022/03/06 13:01:52;;;;;;;;;;;5.20;49.30;;;;;;5050120;28;19929;-85
2022/03/06 13:04:20;;;;;;;;;;;5.20;49.20;;;;;;5031270;28;19923;-87
2022/03/06 13:06:46;;;;;;;;;;;5.30;49.00;;;;;;5030953;28;19921;-85
2022/03/06 13:09:18;;;;;;;;;;;5.30;49.60;;;;;;5016388;28;19925;-85
2022/03/06 13:11:47;;;;;;;;;;;5.40;49.60;;;;;;5034223;28;20462;-85
2022/03/06 13:14:15;;;;;;;;;;;5.40;47.90;;;;;;5032675;28;19963;-86
2022/03/06 13:16:40;;;;;;;;;;;5.50;47.10;;;;;;5017883;28;19929;-84
2022/03/06 13:19:07;;;;;;;;;;;5.50;48.80;;;;;;5035689;28;19933;-85
2022/03/06 13:21:37;;;;;;;;;;;5.50;49.50;;;;;;5052549;28;19917;-86
2022/03/06 13:24:08;;;;;;;;;;;5.60;47.80;;;;;;5037850;28;19924;-85
2022/03/06 13:26:34;;;;;;;;;;;5.60;47.70;;;;;;5036734;28;19919;-85
2022/03/06 13:29:00;;;;;;;;;;;5.70;49.80;;;;;;5053092;28;20421;-85
2022/03/06 13:31:25;;;;;;;;;;;5.80;48.50;;;;;;5053373;28;19925;-85
2022/03/06 13:34:05;;;;;;;;;;;5.70;48.30;;;;;;5034741;28;19913;-85
2022/03/06 13:36:30;;;;;;;;;;;5.60;49.70;;;;;;5047338;28;19916;-85
2022/03/06 13:39:09;;;;;;;;;;;5.60;49.40;;;;;;5034892;28;19931;-84
2022/03/06 13:41:35;;;;;;;;;;;5.60;50.50;;;;;;5050689;28;19917;-87
2022/03/06 13:44:03;;;;;;;;;;;5.50;49.80;;;;;;5016527;28;20471;-87
2022/03/06 13:46:34;;;;;;;;;;;5.50;50.70;;;;;;5015412;28;20004;-87
2022/03/06 13:49:06;;;;;;;;;;;5.50;49.90;;;;;;5049018;28;19959;-87
2022/03/06 13:51:32;;;;;;;;;;;5.50;47.60;;;;;;5032056;28;19953;-87
2022/03/06 13:54:00;;;;;;;;;;;5.40;49.00;;;;;;5031326;28;19959;-86
2022/03/06 13:56:39;;;;;;;;;;;5.40;49.20;;;;;;5031131;28;20451;-86
2022/03/06 13:59:09;;;;;;;;;;;5.30;49.80;;;;;;5033040;28;19910;-87
2022/03/06 14:01:34;;;;;;;;;;;5.30;49.10;;;;;;5031778;28;19916;-86
2022/03/06 14:04:01;;;;;;;;;;;5.30;49.10;;;;;;5031208;28;19913;-86
2022/03/06 14:06:40;;;;;;;;;;;5.30;47.70;;;;;;5032952;28;20416;-87
2022/03/06 14:09:23;;;;;;;;;;;5.30;48.20;;;;;;5031556;28;19972;-86
2022/03/06 14:11:49;;;;;;;;;;;5.20;49.70;;;;;;5015438;28;19913;-86
2022/03/06 14:14:14;;;;;;;;;;;5.20;49.20;;;;;;5031930;28;19913;-86
2022/03/06 14:16:40;;;;;;;;;;;5.20;49.30;;;;;;5015025;28;19921;-87
2022/03/06 14:19:07;;;;;;;;;;;5.20;48.50;;;;;;5031060;28;20455;-86
2022/03/06 14:21:34;;;;;;;;;;;5.10;48.60;;;;;;5032336;28;19916;-86